createdAt,value
2018-10-09T00:02:01.504Z,11.50
2018-10-09T00:04:30.065Z,11.50
2018-10-09T00:06:58.664Z,11.50
2018-10-09T00:09:27.237Z,11.40
2018-10-09T00:11:55.937Z,11.40
2018-10-09T00:14:24.500Z,11.40
2018-10-09T00:16:53.085Z,11.40
2018-10-09T00:19:21.688Z,11.40
2018-10-09T00:21:50.299Z,11.30
2018-10-09T00:24:18.867Z,11.30
2018-10-09T00:26:47.488Z,11.30
2018-10-09T00:29:16.066Z,11.20
2018-10-09T00:31:44.643Z,11.20
2018-10-09T00:34:13.188Z,11.20
2018-10-09T00:36:41.784Z,11.10
2018-10-09T00:39:11.339Z,11.00
2018-10-09T00:41:39.934Z,11.00
2018-10-09T00:44:08.765Z,11.00
2018-10-09T00:46:37.382Z,10.90
2018-10-09T00:49:06.383Z,10.90
2018-10-09T00:51:35.010Z,10.80
2018-10-09T00:54:03.580Z,10.80
2018-10-09T00:56:32.184Z,10.80
2018-10-09T00:59:00.769Z,10.70
2018-10-09T01:01:29.381Z,10.70
2018-10-09T01:03:57.929Z,10.70
2018-10-09T01:06:26.539Z,10.70
2018-10-09T01:08:55.083Z,10.60
2018-10-09T01:11:23.658Z,10.60
2018-10-09T01:13:52.224Z,10.60
2018-10-09T01:16:20.951Z,10.60
2018-10-09T01:18:49.494Z,10.60
2018-10-09T01:21:18.108Z,10.60
2018-10-09T01:23:46.660Z,10.50
2018-10-09T01:26:15.233Z,10.50
2018-10-09T01:28:43.857Z,10.50
2018-10-09T01:31:12.420Z,10.50
2018-10-09T01:33:41.020Z,10.50
2018-10-09T01:36:09.585Z,10.40
2018-10-09T01:38:38.164Z,10.40
2018-10-09T01:41:06.923Z,10.30
2018-10-09T01:43:35.532Z,10.30
2018-10-09T01:46:04.144Z,10.30
2018-10-09T01:48:32.731Z,10.30
2018-10-09T01:51:01.293Z,10.30
2018-10-09T01:53:29.888Z,10.30
2018-10-09T01:55:58.493Z,10.30
2018-10-09T01:58:27.082Z,10.30
2018-10-09T02:00:55.657Z,10.20
2018-10-09T02:03:24.262Z,10.30
2018-10-09T02:05:52.824Z,10.30
2018-10-09T02:08:21.396Z,10.30
2018-10-09T02:10:49.968Z,10.20
2018-10-09T02:13:18.555Z,10.20
2018-10-09T02:15:47.131Z,10.20
2018-10-09T02:18:15.738Z,10.10
2018-10-09T02:20:44.327Z,10.10
2018-10-09T02:23:12.915Z,10.10
2018-10-09T02:25:41.584Z,10.10
2018-10-09T02:28:10.207Z,10.10
2018-10-09T02:30:38.780Z,10.10
2018-10-09T02:33:07.968Z,10.10
2018-10-09T02:35:36.669Z,10.10
2018-10-09T02:38:05.281Z,10.10
2018-10-09T02:40:33.836Z,10.10
2018-10-09T02:43:02.460Z,10.10
2018-10-09T02:45:31.138Z,10.10
2018-10-09T02:47:59.753Z,10.10
2018-10-09T02:50:28.311Z,10.10
2018-10-09T02:52:56.876Z,10.00
2018-10-09T02:55:25.455Z,10.00
2018-10-09T02:57:54.076Z,10.00
2018-10-09T03:00:22.620Z,9.90
2018-10-09T03:02:51.209Z,9.90
2018-10-09T03:05:20.154Z,9.90
2018-10-09T03:07:48.725Z,9.80
2018-10-09T03:10:17.305Z,9.80
2018-10-09T03:12:45.885Z,9.80
2018-10-09T03:15:14.413Z,9.70
2018-10-09T03:17:43.045Z,9.70
2018-10-09T03:20:11.644Z,9.70
2018-10-09T03:22:40.211Z,9.70
2018-10-09T03:25:08.826Z,9.70
2018-10-09T03:27:37.439Z,9.60
2018-10-09T03:30:07.928Z,9.60
2018-10-09T03:32:36.763Z,9.50
2018-10-09T03:35:05.505Z,9.50
2018-10-09T03:37:34.080Z,9.50
2018-10-09T03:40:02.698Z,9.40
2018-10-09T03:42:31.263Z,9.40
2018-10-09T03:44:59.832Z,9.40
2018-10-09T03:47:28.429Z,9.40
2018-10-09T03:49:57.016Z,9.40
2018-10-09T03:52:25.639Z,9.40
2018-10-09T03:54:54.212Z,9.30
2018-10-09T03:57:22.771Z,9.30
2018-10-09T03:59:51.337Z,9.30
2018-10-09T04:02:20.769Z,9.30
2018-10-09T04:04:49.524Z,9.30
2018-10-09T04:07:18.079Z,9.30
2018-10-09T04:09:47.058Z,9.30
2018-10-09T04:12:15.833Z,9.30
2018-10-09T04:14:44.463Z,9.30
2018-10-09T04:17:13.075Z,9.30
2018-10-09T04:19:41.672Z,9.30
2018-10-09T04:22:14.449Z,9.40
2018-10-09T04:24:43.085Z,9.40
2018-10-09T04:27:11.655Z,9.40
2018-10-09T04:29:40.289Z,9.40
2018-10-09T04:32:08.959Z,9.40
2018-10-09T04:34:37.559Z,9.40
2018-10-09T04:37:06.217Z,9.40
2018-10-09T04:39:34.998Z,9.40
2018-10-09T04:42:03.559Z,9.40
2018-10-09T04:44:32.198Z,9.40
2018-10-09T04:47:00.808Z,9.40
2018-10-09T04:49:29.397Z,9.40
2018-10-09T04:51:57.995Z,9.40
2018-10-09T04:54:26.641Z,9.50
2018-10-09T04:56:55.242Z,9.60
2018-10-09T04:59:23.879Z,9.60
2018-10-09T05:01:52.497Z,9.70
2018-10-09T05:04:21.092Z,9.80
2018-10-09T05:06:49.637Z,9.90
2018-10-09T05:09:18.238Z,9.90
2018-10-09T05:11:46.867Z,10.00
2018-10-09T05:14:15.481Z,10.00
2018-10-09T05:16:44.085Z,10.00
2018-10-09T05:19:12.687Z,10.10
2018-10-09T05:21:41.353Z,10.10
2018-10-09T05:24:09.952Z,10.10
2018-10-09T05:26:38.529Z,10.10
2018-10-09T05:29:07.147Z,10.20
2018-10-09T05:31:35.746Z,10.20
2018-10-09T05:34:04.348Z,10.30
2018-10-09T05:36:32.928Z,10.30
2018-10-09T05:39:01.501Z,10.40
2018-10-09T05:41:30.099Z,10.40
2018-10-09T05:43:58.666Z,10.50
2018-10-09T05:46:27.555Z,10.60
2018-10-09T05:48:56.229Z,10.70
2018-10-09T05:51:24.833Z,10.80
2018-10-09T05:53:53.428Z,10.80
2018-10-09T05:56:22.021Z,10.90
2018-10-09T05:58:50.593Z,11.00
2018-10-09T06:01:19.231Z,11.10
2018-10-09T06:03:47.802Z,11.20
2018-10-09T06:06:16.396Z,11.20
2018-10-09T06:08:44.975Z,11.30
2018-10-09T06:11:13.606Z,11.30
2018-10-09T06:13:42.269Z,11.40
2018-10-09T06:16:10.909Z,11.50
2018-10-09T06:18:39.611Z,11.50
2018-10-09T06:21:08.428Z,11.50
2018-10-09T06:23:37.545Z,11.60
2018-10-09T06:26:06.267Z,11.70
2018-10-09T06:28:34.942Z,11.80
2018-10-09T06:31:03.617Z,11.90
2018-10-09T06:33:32.195Z,11.90
2018-10-09T06:36:00.785Z,12.00
2018-10-09T06:38:29.404Z,12.10
2018-10-09T06:40:58.040Z,12.20
2018-10-09T06:43:28.930Z,12.30
2018-10-09T06:45:59.705Z,12.40
2018-10-09T06:48:28.313Z,12.50
2018-10-09T06:50:57.201Z,12.60
2018-10-09T06:53:25.896Z,12.70
2018-10-09T06:55:54.541Z,12.80
2018-10-09T06:58:23.197Z,12.90
2018-10-09T07:00:51.798Z,13.00
2018-10-09T07:03:20.380Z,13.10
2018-10-09T07:05:48.999Z,13.10
2018-10-09T07:08:17.632Z,13.10
2018-10-09T07:10:46.241Z,13.20
2018-10-09T07:13:14.834Z,13.20
2018-10-09T07:15:43.536Z,13.20
2018-10-09T07:18:12.107Z,13.20
2018-10-09T07:20:40.703Z,13.20
2018-10-09T07:23:09.323Z,13.20
2018-10-09T07:25:37.927Z,13.20
2018-10-09T07:28:07.254Z,13.20
2018-10-09T07:30:35.809Z,13.20
2018-10-09T07:33:04.383Z,13.30
2018-10-09T07:35:33.022Z,13.30
2018-10-09T07:38:01.576Z,13.30
2018-10-09T07:40:30.235Z,13.30
2018-10-09T07:42:58.802Z,13.40
2018-10-09T07:45:27.397Z,13.40
2018-10-09T07:47:55.963Z,13.50
2018-10-09T07:50:24.561Z,13.60
2018-10-09T07:52:53.242Z,13.60
2018-10-09T07:55:21.781Z,13.70
2018-10-09T07:57:50.481Z,13.70
2018-10-09T08:00:19.106Z,13.80
2018-10-09T08:02:47.681Z,13.90
2018-10-09T08:05:16.231Z,13.90
2018-10-09T08:07:44.852Z,14.00
2018-10-09T08:10:13.453Z,14.00
2018-10-09T08:12:42.051Z,14.00
2018-10-09T08:15:10.614Z,14.00
2018-10-09T08:17:39.249Z,14.00
2018-10-09T08:20:07.979Z,14.10
2018-10-09T08:22:36.705Z,14.10
2018-10-09T08:25:05.275Z,14.20
2018-10-09T08:27:33.929Z,14.30
2018-10-09T08:30:02.518Z,14.40
2018-10-09T08:32:31.116Z,14.50
2018-10-09T08:34:59.708Z,14.60
2018-10-09T08:37:28.293Z,14.60
2018-10-09T08:39:56.879Z,14.60
2018-10-09T08:42:25.469Z,14.80
2018-10-09T08:44:54.052Z,15.00
2018-10-09T08:47:22.667Z,15.20
2018-10-09T08:49:51.240Z,15.40
2018-10-09T08:52:19.861Z,15.60
2018-10-09T08:54:48.438Z,15.80
2018-10-09T08:57:17.060Z,15.90
2018-10-09T08:59:45.659Z,16.10
2018-10-09T09:02:14.344Z,16.20
2018-10-09T09:04:42.913Z,16.30
2018-10-09T09:07:11.652Z,16.40
2018-10-09T09:09:40.278Z,16.40
2018-10-09T09:12:08.858Z,16.50
2018-10-09T09:14:37.463Z,16.50
2018-10-09T09:17:06.113Z,16.60
2018-10-09T09:19:34.728Z,16.80
2018-10-09T09:22:03.401Z,16.80
2018-10-09T09:24:32.003Z,16.90
2018-10-09T09:27:00.960Z,17.00
2018-10-09T09:29:29.511Z,17.20
2018-10-09T09:31:58.106Z,17.40
2018-10-09T09:34:26.660Z,17.50
2018-10-09T09:36:55.271Z,17.60
2018-10-09T09:39:24.000Z,17.70
2018-10-09T09:41:52.584Z,17.70
2018-10-09T09:44:21.173Z,17.80
2018-10-09T09:46:49.778Z,17.90
2018-10-09T09:49:18.338Z,18.00
2018-10-09T09:51:46.936Z,18.10
2018-10-09T09:54:15.541Z,18.10
2018-10-09T09:56:44.102Z,18.10
2018-10-09T09:59:12.951Z,18.10
2018-10-09T10:01:42.728Z,18.10
2018-10-09T10:04:12.261Z,18.10
2018-10-09T10:06:41.130Z,18.00
2018-10-09T10:09:10.248Z,18.00
2018-10-09T10:11:38.853Z,18.10
2018-10-09T10:14:08.036Z,18.10
2018-10-09T10:16:36.667Z,18.10
2018-10-09T10:19:05.335Z,18.20
2018-10-09T10:21:33.905Z,18.30
2018-10-09T10:24:02.529Z,18.50
2018-10-09T10:26:31.109Z,18.70
2018-10-09T10:28:59.730Z,18.70
2018-10-09T10:31:28.300Z,18.80
2018-10-09T10:33:57.704Z,18.90
2018-10-09T10:36:26.252Z,19.00
2018-10-09T10:38:54.899Z,19.10
2018-10-09T10:41:23.600Z,19.10
2018-10-09T10:43:52.403Z,19.30
2018-10-09T10:46:21.040Z,19.40
2018-10-09T10:49:03.928Z,19.60
2018-10-09T10:51:32.461Z,19.70
2018-10-09T10:54:01.053Z,20.00
2018-10-09T10:56:29.878Z,20.40
2018-10-09T10:58:58.505Z,20.90
2018-10-09T11:01:27.397Z,21.40
2018-10-09T11:03:56.558Z,22.00
2018-10-09T11:06:25.352Z,22.70
2018-10-09T11:08:57.685Z,23.50
2018-10-09T11:11:26.304Z,24.30
2018-10-09T11:13:54.935Z,25.00
2018-10-09T11:16:23.571Z,25.50
2018-10-09T11:18:52.348Z,25.90
2018-10-09T11:21:21.038Z,26.30
2018-10-09T11:23:49.534Z,26.80
2018-10-09T11:26:18.107Z,27.10
2018-10-09T11:28:46.841Z,27.50
2018-10-09T11:31:15.421Z,28.10
2018-10-09T11:33:44.024Z,28.50
2018-10-09T11:36:12.647Z,28.70
2018-10-09T11:38:41.309Z,28.70
2018-10-09T11:41:09.966Z,28.80
2018-10-09T11:43:38.633Z,29.00
2018-10-09T11:46:08.055Z,29.20
2018-10-09T11:48:36.681Z,29.50
2018-10-09T11:51:05.540Z,29.70
2018-10-09T11:53:34.128Z,30.00
2018-10-09T11:56:02.737Z,30.60
2018-10-09T11:58:31.381Z,31.00
2018-10-09T12:01:02.666Z,31.40
2018-10-09T12:03:31.309Z,31.70
2018-10-09T12:05:59.891Z,31.80
2018-10-09T12:08:28.532Z,32.00
2018-10-09T12:10:57.142Z,32.20
2018-10-09T12:13:25.695Z,32.20
2018-10-09T12:15:54.321Z,32.50
2018-10-09T12:18:22.957Z,32.90
2018-10-09T12:20:51.657Z,33.30
2018-10-09T12:23:20.689Z,33.70
2018-10-09T12:25:49.298Z,34.10
2018-10-09T12:28:18.001Z,34.20
2018-10-09T12:30:46.663Z,34.50
2018-10-09T12:33:15.243Z,34.80
2018-10-09T12:35:43.803Z,35.10
2018-10-09T12:38:12.549Z,35.10
2018-10-09T12:40:41.076Z,35.00
2018-10-09T12:43:09.622Z,34.80
2018-10-09T12:45:38.334Z,34.70
2018-10-09T12:48:06.899Z,34.60
2018-10-09T12:50:35.449Z,34.60
2018-10-09T12:53:04.021Z,34.70
2018-10-09T12:55:33.455Z,35.00
2018-10-09T12:58:01.979Z,35.10
2018-10-09T13:00:30.571Z,35.30
2018-10-09T13:02:59.440Z,35.40
2018-10-09T13:05:27.996Z,35.40
2018-10-09T13:07:56.524Z,35.40
2018-10-09T13:10:25.137Z,35.50
2018-10-09T13:12:53.687Z,35.50
2018-10-09T13:15:22.274Z,35.50
2018-10-09T13:17:50.815Z,35.40
2018-10-09T13:20:19.501Z,35.30
2018-10-09T13:22:48.090Z,34.90
2018-10-09T13:25:16.622Z,34.50
2018-10-09T13:27:45.152Z,34.50
2018-10-09T13:30:13.713Z,34.70
2018-10-09T13:32:42.252Z,35.00
2018-10-09T13:35:10.814Z,35.00
2018-10-09T13:37:39.392Z,34.80
2018-10-09T13:40:07.973Z,34.30
2018-10-09T13:42:36.509Z,33.70
2018-10-09T13:45:05.595Z,33.30
2018-10-09T13:47:34.249Z,33.00
2018-10-09T13:50:02.714Z,32.90
2018-10-09T13:52:31.239Z,32.60
2018-10-09T13:54:59.853Z,32.50
2018-10-09T13:57:28.336Z,32.50
2018-10-09T13:59:56.978Z,32.60
2018-10-09T14:02:25.501Z,32.40
2018-10-09T14:04:54.044Z,31.90
2018-10-09T14:07:22.581Z,31.70
2018-10-09T14:09:51.107Z,31.60
2018-10-09T14:12:21.137Z,31.60
2018-10-09T14:14:53.074Z,31.60
2018-10-09T14:17:21.628Z,31.60
2018-10-09T14:19:50.211Z,31.60
2018-10-09T14:22:18.783Z,31.70
2018-10-09T14:24:47.296Z,31.70
2018-10-09T14:27:15.835Z,31.50
2018-10-09T14:29:44.382Z,31.20
2018-10-09T14:32:12.966Z,30.80
2018-10-09T14:34:41.567Z,30.30
2018-10-09T14:37:10.065Z,29.90
2018-10-09T14:39:38.974Z,29.50
2018-10-09T14:42:07.745Z,29.10
2018-10-09T14:44:36.394Z,28.70
2018-10-09T14:47:05.017Z,28.30
2018-10-09T14:49:33.560Z,28.10
2018-10-09T14:52:02.160Z,28.10
2018-10-09T14:54:30.714Z,28.30
2018-10-09T14:56:59.303Z,28.50
2018-10-09T14:59:27.830Z,28.70
2018-10-09T15:01:56.388Z,28.70
2018-10-09T15:04:25.151Z,28.60
2018-10-09T15:06:53.748Z,28.30
2018-10-09T15:09:22.334Z,28.10
2018-10-09T15:11:50.926Z,27.80
2018-10-09T15:14:19.456Z,27.70
2018-10-09T15:16:48.157Z,27.50
2018-10-09T15:19:16.660Z,27.40
2018-10-09T15:21:45.476Z,27.40
2018-10-09T15:24:14.211Z,27.40
2018-10-09T15:26:42.782Z,27.40
2018-10-09T15:29:11.339Z,27.30
2018-10-09T15:31:39.992Z,27.30
2018-10-09T15:34:11.289Z,27.10
2018-10-09T15:36:39.816Z,26.90
2018-10-09T15:39:10.561Z,26.60
2018-10-09T15:41:39.369Z,26.20
2018-10-09T15:44:07.966Z,25.80
2018-10-09T15:46:36.646Z,25.40
2018-10-09T15:49:05.164Z,25.10
2018-10-09T15:51:33.733Z,24.80
2018-10-09T15:54:02.949Z,24.70
2018-10-09T15:56:31.570Z,24.50
2018-10-09T15:59:00.148Z,24.50
2018-10-09T16:01:28.708Z,24.50
2018-10-09T16:03:57.583Z,24.50
2018-10-09T16:06:26.216Z,24.50
2018-10-09T16:08:54.807Z,24.40
2018-10-09T16:11:23.368Z,24.30
2018-10-09T16:13:51.873Z,24.10
2018-10-09T16:16:20.436Z,23.90
2018-10-09T16:18:48.975Z,23.60
2018-10-09T16:21:17.556Z,23.20
2018-10-09T16:23:46.098Z,22.80
2018-10-09T16:26:14.684Z,22.50
2018-10-09T16:28:43.219Z,22.20
2018-10-09T16:31:11.799Z,21.80
2018-10-09T16:33:40.382Z,21.50
2018-10-09T16:36:08.919Z,21.20
2018-10-09T16:38:37.449Z,20.90
2018-10-09T16:41:06.212Z,20.70
2018-10-09T16:43:34.772Z,20.40
2018-10-09T16:46:04.118Z,20.20
2018-10-09T16:48:32.720Z,20.00
2018-10-09T16:51:01.257Z,19.80
2018-10-09T16:53:30.115Z,19.60
2018-10-09T16:55:58.805Z,19.40
2018-10-09T16:58:27.364Z,19.20
2018-10-09T17:00:56.034Z,19.00
2018-10-09T17:03:24.562Z,18.90
2018-10-09T17:05:53.324Z,18.80
2018-10-09T17:08:21.907Z,18.60
2018-10-09T17:10:50.481Z,18.50
2018-10-09T17:13:19.035Z,18.40
2018-10-09T17:15:47.708Z,18.20
2018-10-09T17:18:16.199Z,18.10
2018-10-09T17:20:57.658Z,18.00
2018-10-09T17:23:26.174Z,17.90
2018-10-09T17:25:54.752Z,17.70
2018-10-09T17:28:23.341Z,17.60
2018-10-09T17:30:53.891Z,17.50
2018-10-09T17:33:22.928Z,17.40
2018-10-09T17:35:51.512Z,17.30
2018-10-09T17:38:21.018Z,17.20
2018-10-09T17:40:49.561Z,17.10
2018-10-09T17:43:18.115Z,17.00
2018-10-09T17:45:46.667Z,16.90
2018-10-09T17:48:15.201Z,16.80
2018-10-09T17:50:43.727Z,16.70
2018-10-09T17:53:12.273Z,16.60
2018-10-09T17:55:40.843Z,16.50
2018-10-09T17:58:09.395Z,16.40
2018-10-09T18:00:37.940Z,16.30
2018-10-09T18:03:06.648Z,16.30
2018-10-09T18:05:35.155Z,16.20
2018-10-09T18:08:03.684Z,16.10
2018-10-09T18:10:32.281Z,16.00
2018-10-09T18:13:00.818Z,16.00
2018-10-09T18:15:29.331Z,15.90
2018-10-09T18:17:57.910Z,15.80
2018-10-09T18:20:26.495Z,15.80
2018-10-09T18:22:54.990Z,15.70
2018-10-09T18:25:23.505Z,15.60
2018-10-09T18:27:52.053Z,15.60
2018-10-09T18:30:20.624Z,15.50
2018-10-09T18:32:49.527Z,15.40
2018-10-09T18:35:18.042Z,15.40
2018-10-09T18:37:46.596Z,15.40
2018-10-09T18:40:15.124Z,15.30
2018-10-09T18:42:43.681Z,15.30
2018-10-09T18:45:12.307Z,15.20
2018-10-09T18:47:45.024Z,15.20
2018-10-09T18:50:14.069Z,15.10
2018-10-09T18:52:43.208Z,15.00
2018-10-09T18:55:13.841Z,15.00
2018-10-09T18:57:42.637Z,14.90
2018-10-09T19:00:12.607Z,14.90
2018-10-09T19:02:41.201Z,14.80
2018-10-09T19:05:10.872Z,14.80
2018-10-09T19:07:39.955Z,14.70
2018-10-09T19:10:09.032Z,14.70
2018-10-09T19:12:37.855Z,14.60
2018-10-09T19:15:06.607Z,14.60
2018-10-09T19:17:35.164Z,14.50
2018-10-09T19:20:04.019Z,14.50
2018-10-09T19:22:32.570Z,14.40
2018-10-09T19:25:01.086Z,14.40
2018-10-09T19:27:29.633Z,14.40
2018-10-09T19:29:58.207Z,14.30
2018-10-09T19:32:26.804Z,14.30
2018-10-09T19:34:55.298Z,14.20
2018-10-09T19:37:23.977Z,14.20
2018-10-09T19:39:52.561Z,14.10
2018-10-09T19:42:21.077Z,14.00
2018-10-09T19:44:49.624Z,14.00
2018-10-09T19:47:18.145Z,13.90
2018-10-09T19:49:46.685Z,13.90
2018-10-09T19:52:15.217Z,13.80
2018-10-09T19:54:43.801Z,13.80
2018-10-09T19:57:12.453Z,13.70
2018-10-09T19:59:41.013Z,13.60
2018-10-09T20:02:09.578Z,13.60
2018-10-09T20:04:38.317Z,13.50
2018-10-09T20:07:06.990Z,13.50
2018-10-09T20:09:35.543Z,13.40
2018-10-09T20:12:04.060Z,13.40
2018-10-09T20:14:32.643Z,13.30
2018-10-09T20:17:01.156Z,13.30
2018-10-09T20:19:29.672Z,13.30
2018-10-09T20:21:58.184Z,13.20
2018-10-09T20:24:26.773Z,13.20
2018-10-09T20:26:55.309Z,13.20
2018-10-09T20:29:23.864Z,13.10
2018-10-09T20:31:52.384Z,13.10
2018-10-09T20:34:20.970Z,13.10
2018-10-09T20:36:49.505Z,13.10
2018-10-09T20:39:18.354Z,13.10
2018-10-09T20:41:46.903Z,13.00
2018-10-09T20:44:15.444Z,13.00
2018-10-09T20:46:43.960Z,13.00
2018-10-09T20:49:12.603Z,12.90
2018-10-09T20:51:41.118Z,12.90
2018-10-09T20:54:09.645Z,12.90
2018-10-09T20:56:38.179Z,12.80
2018-10-09T20:59:07.448Z,12.80
2018-10-09T21:01:36.215Z,12.70
2018-10-09T21:04:04.965Z,12.70
2018-10-09T21:06:33.512Z,12.60
2018-10-09T21:09:02.553Z,12.60
2018-10-09T21:11:31.179Z,12.60
2018-10-09T21:13:59.722Z,12.60
2018-10-09T21:16:28.228Z,12.50
2018-10-09T21:18:56.755Z,12.50
2018-10-09T21:21:25.294Z,12.50
2018-10-09T21:23:53.846Z,12.40
2018-10-09T21:26:22.344Z,12.40
2018-10-09T21:28:50.895Z,12.40
2018-10-09T21:31:19.415Z,12.40
2018-10-09T21:33:47.928Z,12.30
2018-10-09T21:36:16.524Z,12.30
2018-10-09T21:38:45.172Z,12.30
2018-10-09T21:41:13.711Z,12.30
2018-10-09T21:43:42.228Z,12.20
2018-10-09T21:46:10.781Z,12.20
2018-10-09T21:48:39.320Z,12.20
2018-10-09T21:51:07.847Z,12.20
2018-10-09T21:53:36.346Z,12.10
2018-10-09T21:56:04.893Z,12.10
2018-10-09T21:58:33.403Z,12.10
2018-10-09T22:01:07.355Z,12.00
2018-10-09T22:03:35.875Z,12.00
2018-10-09T22:06:04.467Z,12.00
2018-10-09T22:08:32.975Z,11.90
2018-10-09T22:11:01.501Z,11.90
2018-10-09T22:13:30.286Z,11.80
2018-10-09T22:15:58.895Z,11.80
2018-10-09T22:18:27.407Z,11.80
2018-10-09T22:20:55.963Z,11.70
2018-10-09T22:23:31.213Z,11.70
2018-10-09T22:26:00.113Z,11.70
2018-10-09T22:28:28.609Z,11.70
2018-10-09T22:30:57.118Z,11.60
2018-10-09T22:33:25.662Z,11.60
2018-10-09T22:35:54.173Z,11.60
2018-10-09T22:38:22.762Z,11.60
2018-10-09T22:40:51.256Z,11.60
2018-10-09T22:43:19.790Z,11.60
2018-10-09T22:45:50.783Z,11.60
2018-10-09T22:48:19.383Z,11.60
2018-10-09T22:50:47.943Z,11.60
2018-10-09T22:53:16.461Z,11.60
2018-10-09T22:55:44.971Z,11.50
2018-10-09T22:58:13.560Z,11.50
2018-10-09T23:00:42.149Z,11.50
2018-10-09T23:03:10.693Z,11.50
2018-10-09T23:05:39.240Z,11.50
2018-10-09T23:08:09.655Z,11.50
2018-10-09T23:10:39.741Z,11.50
2018-10-09T23:13:10.467Z,11.50
2018-10-09T23:15:40.667Z,11.50
2018-10-09T23:18:10.634Z,11.50
2018-10-09T23:20:39.230Z,11.50
2018-10-09T23:23:07.753Z,11.50
2018-10-09T23:25:36.309Z,11.50
2018-10-09T23:28:04.877Z,11.50
2018-10-09T23:30:36.691Z,11.40
2018-10-09T23:33:05.724Z,11.40
2018-10-09T23:35:34.273Z,11.30
2018-10-09T23:38:02.771Z,11.30
2018-10-09T23:40:31.304Z,11.20
2018-10-09T23:42:59.877Z,11.20
2018-10-09T23:45:28.412Z,11.10
2018-10-09T23:48:07.465Z,11.10
2018-10-09T23:50:38.129Z,11.00
2018-10-09T23:53:07.240Z,11.00
2018-10-09T23:55:36.401Z,10.90
2018-10-09T23:58:05.095Z,10.90
